sensor_id;sensor_type;location;lat;lon;timestamp;temperature;humidity
10304;DHT22;5197;48.152;8.590;2023-06-22T00:01:21;19.60;19.60
10304;DHT22;5197;48.152;8.590;2023-06-22T00:03:49;19.50;19.50
10304;DHT22;5197;48.152;8.590;2023-06-22T00:06:16;19.60;19.70
10304;DHT22;5197;48.152;8.590;2023-06-22T00:08:43;19.90;19.70
10304;DHT22;5197;48.152;8.590;2023-06-22T00:11:10;19.50;20.10
10304;DHT22;5197;48.152;8.590;2023-06-22T00:13:38;19.40;21.20
10304;DHT22;5197;48.152;8.590;2023-06-22T00:16:06;19.40;21.20
10304;DHT22;5197;48.152;8.590;2023-06-22T00:18:33;19.80;21.00
10304;DHT22;5197;48.152;8.590;2023-06-22T00:21:00;19.90;21.00
10304;DHT22;5197;48.152;8.590;2023-06-22T00:23:28;19.50;20.60
10304;DHT22;5197;48.152;8.590;2023-06-22T00:25:55;19.50;20.80
10304;DHT22;5197;48.152;8.590;2023-06-22T00:28:22;19.40;20.90
10304;DHT22;5197;48.152;8.590;2023-06-22T00:30:49;19.40;21.20
10304;DHT22;5197;48.152;8.590;2023-06-22T00:33:16;19.30;21.60
10304;DHT22;5197;48.152;8.590;2023-06-22T00:35:43;19.20;22.20
10304;DHT22;5197;48.152;8.590;2023-06-22T00:38:11;19.20;22.80
10304;DHT22;5197;48.152;8.590;2023-06-22T00:40:38;20.30;25.70
10304;DHT22;5197;48.152;8.590;2023-06-22T00:43:05;19.40;26.70
10304;DHT22;5197;48.152;8.590;2023-06-22T00:45:33;18.90;26.90
10304;DHT22;5197;48.152;8.590;2023-06-22T00:48:01;18.90;26.80
10304;DHT22;5197;48.152;8.590;2023-06-22T00:50:30;19.20;27.00
10304;DHT22;5197;48.152;8.590;2023-06-22T00:53:06;18.90;26.80
10304;DHT22;5197;48.152;8.590;2023-06-22T00:55:43;19.00;26.90
10304;DHT22;5197;48.152;8.590;2023-06-22T00:58:12;18.90;27.70
10304;DHT22;5197;48.152;8.590;2023-06-22T01:00:40;19.00;28.90
10304;DHT22;5197;48.152;8.590;2023-06-22T01:03:08;18.80;30.00
10304;DHT22;5197;48.152;8.590;2023-06-22T01:05:38;18.70;33.30
10304;DHT22;5197;48.152;8.590;2023-06-22T01:11:15;18.70;33.90
10304;DHT22;5197;48.152;8.590;2023-06-22T01:14:12;18.70;34.00
10304;DHT22;5197;48.152;8.590;2023-06-22T01:16:44;18.60;34.30
10304;DHT22;5197;48.152;8.590;2023-06-22T01:19:35;18.70;35.10
10304;DHT22;5197;48.152;8.590;2023-06-22T01:22:05;18.60;34.30
10304;DHT22;5197;48.152;8.590;2023-06-22T01:30:00;18.60;34.80
10304;DHT22;5197;48.152;8.590;2023-06-22T01:32:31;18.60;34.50
10304;DHT22;5197;48.152;8.590;2023-06-22T01:35:01;18.60;35.80
10304;DHT22;5197;48.152;8.590;2023-06-22T01:37:30;18.50;35.40
10304;DHT22;5197;48.152;8.590;2023-06-22T01:39:59;18.60;35.00
10304;DHT22;5197;48.152;8.590;2023-06-22T01:42:27;18.50;34.00
10304;DHT22;5197;48.152;8.590;2023-06-22T01:44:55;18.50;34.30
10304;DHT22;5197;48.152;8.590;2023-06-22T01:47:24;18.50;34.30
10304;DHT22;5197;48.152;8.590;2023-06-22T01:49:52;18.50;34.00
10304;DHT22;5197;48.152;8.590;2023-06-22T01:52:19;18.40;34.20
10304;DHT22;5197;48.152;8.590;2023-06-22T01:54:48;18.40;35.10
10304;DHT22;5197;48.152;8.590;2023-06-22T01:57:15;18.40;35.10
10304;DHT22;5197;48.152;8.590;2023-06-22T01:59:59;18.50;32.40
10304;DHT22;5197;48.152;8.590;2023-06-22T02:02:34;18.50;32.10
10304;DHT22;5197;48.152;8.590;2023-06-22T02:05:06;18.50;33.10
10304;DHT22;5197;48.152;8.590;2023-06-22T02:07:56;18.40;34.20
10304;DHT22;5197;48.152;8.590;2023-06-22T02:10:27;18.40;35.00
10304;DHT22;5197;48.152;8.590;2023-06-22T02:12:57;18.40;34.60
10304;DHT22;5197;48.152;8.590;2023-06-22T02:15:25;18.30;35.70
10304;DHT22;5197;48.152;8.590;2023-06-22T02:17:53;18.30;36.10
10304;DHT22;5197;48.152;8.590;2023-06-22T02:20:20;18.30;35.90
10304;DHT22;5197;48.152;8.590;2023-06-22T02:22:48;18.30;34.60
10304;DHT22;5197;48.152;8.590;2023-06-22T02:25:14;18.30;33.90
10304;DHT22;5197;48.152;8.590;2023-06-22T02:27:42;18.30;33.60
10304;DHT22;5197;48.152;8.590;2023-06-22T02:30:09;18.40;33.10
10304;DHT22;5197;48.152;8.590;2023-06-22T02:32:36;18.30;32.50
10304;DHT22;5197;48.152;8.590;2023-06-22T02:35:03;18.30;32.00
10304;DHT22;5197;48.152;8.590;2023-06-22T02:37:32;18.30;32.20
10304;DHT22;5197;48.152;8.590;2023-06-22T02:39:59;18.30;32.40
10304;DHT22;5197;48.152;8.590;2023-06-22T02:42:26;18.30;32.00
10304;DHT22;5197;48.152;8.590;2023-06-22T02:44:53;18.30;32.30
10304;DHT22;5197;48.152;8.590;2023-06-22T02:47:20;18.30;34.00
10304;DHT22;5197;48.152;8.590;2023-06-22T02:49:47;16.50;32.00
10304;DHT22;5197;48.152;8.590;2023-06-22T02:52:14;18.20;34.20
10304;DHT22;5197;48.152;8.590;2023-06-22T02:54:41;18.20;35.10
10304;DHT22;5197;48.152;8.590;2023-06-22T02:57:08;18.10;35.50
10304;DHT22;5197;48.152;8.590;2023-06-22T02:59:40;18.10;35.30
10304;DHT22;5197;48.152;8.590;2023-06-22T03:02:09;18.10;36.00
10304;DHT22;5197;48.152;8.590;2023-06-22T03:04:36;18.10;36.90
10304;DHT22;5197;48.152;8.590;2023-06-22T03:07:03;18.10;37.30
10304;DHT22;5197;48.152;8.590;2023-06-22T03:09:32;18.00;37.40
10304;DHT22;5197;48.152;8.590;2023-06-22T03:11:59;18.00;38.00
10304;DHT22;5197;48.152;8.590;2023-06-22T03:14:26;18.00;38.60
10304;DHT22;5197;48.152;8.590;2023-06-22T03:16:53;18.00;38.00
10304;DHT22;5197;48.152;8.590;2023-06-22T03:19:20;18.00;37.30
10304;DHT22;5197;48.152;8.590;2023-06-22T03:21:48;18.00;39.90
10304;DHT22;5197;48.152;8.590;2023-06-22T03:24:15;17.90;39.30
10304;DHT22;5197;48.152;8.590;2023-06-22T03:26:42;17.90;40.10
10304;DHT22;5197;48.152;8.590;2023-06-22T03:29:13;17.90;41.10
10304;DHT22;5197;48.152;8.590;2023-06-22T03:31:40;17.90;40.80
10304;DHT22;5197;48.152;8.590;2023-06-22T03:34:07;17.90;41.30
10304;DHT22;5197;48.152;8.590;2023-06-22T03:36:34;17.90;40.90
10304;DHT22;5197;48.152;8.590;2023-06-22T03:39:01;17.90;41.30
10304;DHT22;5197;48.152;8.590;2023-06-22T03:41:28;17.80;42.20
10304;DHT22;5197;48.152;8.590;2023-06-22T03:43:55;17.80;43.80
10304;DHT22;5197;48.152;8.590;2023-06-22T03:46:22;17.80;44.60
10304;DHT22;5197;48.152;8.590;2023-06-22T03:48:49;17.80;44.30
10304;DHT22;5197;48.152;8.590;2023-06-22T03:51:16;17.80;44.00
10304;DHT22;5197;48.152;8.590;2023-06-22T03:53:43;17.80;43.00
10304;DHT22;5197;48.152;8.590;2023-06-22T03:56:10;17.80;42.60
10304;DHT22;5197;48.152;8.590;2023-06-22T03:58:37;17.90;42.70
10304;DHT22;5197;48.152;8.590;2023-06-22T04:01:10;17.90;42.00
10304;DHT22;5197;48.152;8.590;2023-06-22T04:03:38;17.90;41.50
10304;DHT22;5197;48.152;8.590;2023-06-22T04:06:06;17.90;41.40
10304;DHT22;5197;48.152;8.590;2023-06-22T04:08:33;17.90;41.10
10304;DHT22;5197;48.152;8.590;2023-06-22T04:11:00;17.90;40.50
10304;DHT22;5197;48.152;8.590;2023-06-22T04:13:27;17.90;40.60
10304;DHT22;5197;48.152;8.590;2023-06-22T04:15:54;18.00;40.20
10304;DHT22;5197;48.152;8.590;2023-06-22T04:18:21;18.00;40.20
10304;DHT22;5197;48.152;8.590;2023-06-22T04:20:48;18.00;39.90
10304;DHT22;5197;48.152;8.590;2023-06-22T04:23:15;18.00;39.50
10304;DHT22;5197;48.152;8.590;2023-06-22T04:25:42;18.00;39.60
10304;DHT22;5197;48.152;8.590;2023-06-22T04:28:09;18.00;39.90
10304;DHT22;5197;48.152;8.590;2023-06-22T04:30:39;18.00;39.80
10304;DHT22;5197;48.152;8.590;2023-06-22T04:33:14;18.10;39.70
10304;DHT22;5197;48.152;8.590;2023-06-22T04:35:42;18.10;39.70
10304;DHT22;5197;48.152;8.590;2023-06-22T04:38:12;18.20;39.30
10304;DHT22;5197;48.152;8.590;2023-06-22T04:40:40;18.30;38.90
10304;DHT22;5197;48.152;8.590;2023-06-22T04:43:07;18.30;38.60
10304;DHT22;5197;48.152;8.590;2023-06-22T04:45:37;18.30;38.40
10304;DHT22;5197;48.152;8.590;2023-06-22T04:48:05;18.40;38.40
10304;DHT22;5197;48.152;8.590;2023-06-22T04:50:32;18.40;38.40
10304;DHT22;5197;48.152;8.590;2023-06-22T04:52:59;18.50;38.40
10304;DHT22;5197;48.152;8.590;2023-06-22T04:55:26;18.60;38.00
10304;DHT22;5197;48.152;8.590;2023-06-22T04:57:53;18.60;37.50
10304;DHT22;5197;48.152;8.590;2023-06-22T05:00:20;18.70;37.10
10304;DHT22;5197;48.152;8.590;2023-06-22T05:02:50;18.70;36.90
10304;DHT22;5197;48.152;8.590;2023-06-22T05:05:17;18.70;36.50
10304;DHT22;5197;48.152;8.590;2023-06-22T05:07:46;18.70;38.00
10304;DHT22;5197;48.152;8.590;2023-06-22T05:10:15;18.80;36.70
10304;DHT22;5197;48.152;8.590;2023-06-22T05:12:42;18.80;36.30
10304;DHT22;5197;48.152;8.590;2023-06-22T05:15:10;18.80;36.30
10304;DHT22;5197;48.152;8.590;2023-06-22T05:17:38;18.90;36.20
10304;DHT22;5197;48.152;8.590;2023-06-22T05:20:11;18.90;35.90
10304;DHT22;5197;48.152;8.590;2023-06-22T05:22:39;18.90;36.20
10304;DHT22;5197;48.152;8.590;2023-06-22T05:25:09;19.00;36.10
10304;DHT22;5197;48.152;8.590;2023-06-22T05:27:37;19.10;35.60
10304;DHT22;5197;48.152;8.590;2023-06-22T05:30:07;19.20;35.10
10304;DHT22;5197;48.152;8.590;2023-06-22T05:32:35;19.20;34.90
10304;DHT22;5197;48.152;8.590;2023-06-22T05:35:04;19.30;34.50
10304;DHT22;5197;48.152;8.590;2023-06-22T05:37:31;19.40;35.10
10304;DHT22;5197;48.152;8.590;2023-06-22T05:39:58;19.40;35.10
10304;DHT22;5197;48.152;8.590;2023-06-22T05:42:25;21.60;37.00
10304;DHT22;5197;48.152;8.590;2023-06-22T05:44:53;19.70;34.80
10304;DHT22;5197;48.152;8.590;2023-06-22T05:47:20;19.90;35.40
10304;DHT22;5197;48.152;8.590;2023-06-22T05:49:47;20.10;34.90
10304;DHT22;5197;48.152;8.590;2023-06-22T05:52:14;20.40;33.50
10304;DHT22;5197;48.152;8.590;2023-06-22T05:54:41;20.40;31.80
10304;DHT22;5197;48.152;8.590;2023-06-22T05:57:09;20.60;30.10
10304;DHT22;5197;48.152;8.590;2023-06-22T05:59:36;20.80;29.10
10304;DHT22;5197;48.152;8.590;2023-06-22T06:02:04;21.10;28.30
10304;DHT22;5197;48.152;8.590;2023-06-22T06:04:32;21.10;28.20
10304;DHT22;5197;48.152;8.590;2023-06-22T06:06:59;21.10;28.20
10304;DHT22;5197;48.152;8.590;2023-06-22T06:09:26;21.30;28.40
10304;DHT22;5197;48.152;8.590;2023-06-22T06:11:53;21.40;27.90
10304;DHT22;5197;48.152;8.590;2023-06-22T06:14:20;21.50;26.60
10304;DHT22;5197;48.152;8.590;2023-06-22T06:16:49;21.60;25.40
10304;DHT22;5197;48.152;8.590;2023-06-22T06:19:16;21.70;24.60
10304;DHT22;5197;48.152;8.590;2023-06-22T06:21:43;21.80;23.30
10304;DHT22;5197;48.152;8.590;2023-06-22T06:24:11;21.90;22.00
10304;DHT22;5197;48.152;8.590;2023-06-22T06:26:38;22.10;20.60
10304;DHT22;5197;48.152;8.590;2023-06-22T06:29:11;22.10;18.70
10304;DHT22;5197;48.152;8.590;2023-06-22T06:31:38;22.10;18.00
10304;DHT22;5197;48.152;8.590;2023-06-22T06:34:05;22.20;17.90
10304;DHT22;5197;48.152;8.590;2023-06-22T06:36:32;22.40;16.80
10304;DHT22;5197;48.152;8.590;2023-06-22T06:38:59;22.60;16.10
10304;DHT22;5197;48.152;8.590;2023-06-22T06:41:26;22.70;15.30
10304;DHT22;5197;48.152;8.590;2023-06-22T06:43:58;22.80;14.70
10304;DHT22;5197;48.152;8.590;2023-06-22T06:46:25;22.90;13.70
10304;DHT22;5197;48.152;8.590;2023-06-22T06:48:52;23.10;13.10
10304;DHT22;5197;48.152;8.590;2023-06-22T06:51:19;23.30;11.80
10304;DHT22;5197;48.152;8.590;2023-06-22T06:53:46;23.60;6.80
10304;DHT22;5197;48.152;8.590;2023-06-22T06:56:13;23.70;6.70
10304;DHT22;5197;48.152;8.590;2023-06-22T06:58:41;23.70;6.80
10304;DHT22;5197;48.152;8.590;2023-06-22T07:01:09;23.80;7.00
10304;DHT22;5197;48.152;8.590;2023-06-22T07:03:36;23.80;6.90
10304;DHT22;5197;48.152;8.590;2023-06-22T07:06:03;23.60;6.30
10304;DHT22;5197;48.152;8.590;2023-06-22T07:08:30;23.70;6.80
10304;DHT22;5197;48.152;8.590;2023-06-22T07:10:57;23.80;6.80
10304;DHT22;5197;48.152;8.590;2023-06-22T07:13:24;23.70;6.70
10304;DHT22;5197;48.152;8.590;2023-06-22T07:15:51;23.70;6.70
10304;DHT22;5197;48.152;8.590;2023-06-22T07:18:18;23.70;6.80
10304;DHT22;5197;48.152;8.590;2023-06-22T07:20:45;23.60;6.70
10304;DHT22;5197;48.152;8.590;2023-06-22T07:23:12;23.40;6.60
10304;DHT22;5197;48.152;8.590;2023-06-22T07:25:39;23.20;7.00
10304;DHT22;5197;48.152;8.590;2023-06-22T07:28:07;23.20;6.90
10304;DHT22;5197;48.152;8.590;2023-06-22T07:30:34;23.30;6.60
10304;DHT22;5197;48.152;8.590;2023-06-22T07:33:02;23.40;6.60
10304;DHT22;5197;48.152;8.590;2023-06-22T07:35:31;23.50;6.60
10304;DHT22;5197;48.152;8.590;2023-06-22T07:37:58;23.50;6.60
10304;DHT22;5197;48.152;8.590;2023-06-22T07:40:31;23.60;6.70
10304;DHT22;5197;48.152;8.590;2023-06-22T07:42:58;23.70;6.80
10304;DHT22;5197;48.152;8.590;2023-06-22T07:45:25;23.80;6.90
10304;DHT22;5197;48.152;8.590;2023-06-22T07:47:53;23.80;5.00
10304;DHT22;5197;48.152;8.590;2023-06-22T07:50:20;23.70;5.00
10304;DHT22;5197;48.152;8.590;2023-06-22T07:52:47;23.60;6.60
10304;DHT22;5197;48.152;8.590;2023-06-22T07:55:14;23.40;6.60
10304;DHT22;5197;48.152;8.590;2023-06-22T07:57:41;23.20;6.50
10304;DHT22;5197;48.152;8.590;2023-06-22T08:00:09;23.30;6.50
10304;DHT22;5197;48.152;8.590;2023-06-22T08:02:45;23.50;6.60
10304;DHT22;5197;48.152;8.590;2023-06-22T08:05:15;23.70;6.80
10304;DHT22;5197;48.152;8.590;2023-06-22T08:07:45;23.70;6.80
10304;DHT22;5197;48.152;8.590;2023-06-22T08:10:14;23.70;6.80
10304;DHT22;5197;48.152;8.590;2023-06-22T08:12:41;23.70;6.20
10304;DHT22;5197;48.152;8.590;2023-06-22T08:15:09;23.90;5.80
10304;DHT22;5197;48.152;8.590;2023-06-22T08:17:40;24.20;4.30
10304;DHT22;5197;48.152;8.590;2023-06-22T08:20:08;24.50;3.10
10304;DHT22;5197;48.152;8.590;2023-06-22T08:22:42;24.70;1.70
10304;DHT22;5197;48.152;8.590;2023-06-22T08:25:11;25.00;1.00
10304;DHT22;5197;48.152;8.590;2023-06-22T08:27:38;25.30;1.00
10304;DHT22;5197;48.152;8.590;2023-06-22T08:30:06;25.50;1.00
10304;DHT22;5197;48.152;8.590;2023-06-22T08:32:34;26.30;1.00
10304;DHT22;5197;48.152;8.590;2023-06-22T08:35:02;25.70;1.00
10304;DHT22;5197;48.152;8.590;2023-06-22T08:37:29;25.90;1.00
10304;DHT22;5197;48.152;8.590;2023-06-22T08:40:05;26.10;1.00
10304;DHT22;5197;48.152;8.590;2023-06-22T08:42:39;26.20;1.00
10304;DHT22;5197;48.152;8.590;2023-06-22T08:45:07;26.20;1.00
10304;DHT22;5197;48.152;8.590;2023-06-22T08:47:34;26.40;1.00
10304;DHT22;5197;48.152;8.590;2023-06-22T08:50:02;26.50;1.00
10304;DHT22;5197;48.152;8.590;2023-06-22T08:52:32;26.70;1.00
10304;DHT22;5197;48.152;8.590;2023-06-22T08:54:59;25.50;1.00
10304;DHT22;5197;48.152;8.590;2023-06-22T08:57:27;26.90;1.00
10304;DHT22;5197;48.152;8.590;2023-06-22T08:59:55;26.90;1.00
10304;DHT22;5197;48.152;8.590;2023-06-22T09:02:26;27.00;1.00
10304;DHT22;5197;48.152;8.590;2023-06-22T09:04:58;27.20;1.00
10304;DHT22;5197;48.152;8.590;2023-06-22T09:07:25;27.20;1.00
10304;DHT22;5197;48.152;8.590;2023-06-22T09:09:53;27.40;1.00
10304;DHT22;5197;48.152;8.590;2023-06-22T09:12:20;27.60;1.00
10304;DHT22;5197;48.152;8.590;2023-06-22T09:14:51;27.60;1.00
10304;DHT22;5197;48.152;8.590;2023-06-22T09:17:19;27.60;1.00
10304;DHT22;5197;48.152;8.590;2023-06-22T09:19:46;27.70;1.00
10304;DHT22;5197;48.152;8.590;2023-06-22T09:22:14;27.70;1.00
10304;DHT22;5197;48.152;8.590;2023-06-22T09:24:41;27.70;1.00
10304;DHT22;5197;48.152;8.590;2023-06-22T09:27:08;27.80;1.00
10304;DHT22;5197;48.152;8.590;2023-06-22T09:29:35;28.00;1.00
10304;DHT22;5197;48.152;8.590;2023-06-22T09:32:03;27.90;1.00
10304;DHT22;5197;48.152;8.590;2023-06-22T09:34:30;28.10;1.00
10304;DHT22;5197;48.152;8.590;2023-06-22T09:36:58;28.10;1.00
10304;DHT22;5197;48.152;8.590;2023-06-22T09:39:27;28.20;1.00
10304;DHT22;5197;48.152;8.590;2023-06-22T09:41:54;28.20;1.00
10304;DHT22;5197;48.152;8.590;2023-06-22T09:44:21;28.20;1.00
10304;DHT22;5197;48.152;8.590;2023-06-22T09:46:48;28.20;1.00
10304;DHT22;5197;48.152;8.590;2023-06-22T09:49:16;28.20;1.00
10304;DHT22;5197;48.152;8.590;2023-06-22T09:51:44;28.30;1.00
10304;DHT22;5197;48.152;8.590;2023-06-22T09:54:12;28.30;1.00
10304;DHT22;5197;48.152;8.590;2023-06-22T09:56:39;28.30;1.00
10304;DHT22;5197;48.152;8.590;2023-06-22T09:59:06;28.30;1.00
10304;DHT22;5197;48.152;8.590;2023-06-22T10:01:44;28.30;1.00
10304;DHT22;5197;48.152;8.590;2023-06-22T10:04:11;28.50;1.00
10304;DHT22;5197;48.152;8.590;2023-06-22T10:06:39;28.50;1.00
10304;DHT22;5197;48.152;8.590;2023-06-22T10:09:08;28.50;1.00
10304;DHT22;5197;48.152;8.590;2023-06-22T10:11:35;28.60;1.00
10304;DHT22;5197;48.152;8.590;2023-06-22T10:14:04;28.70;1.00
10304;DHT22;5197;48.152;8.590;2023-06-22T10:16:31;28.80;1.00
10304;DHT22;5197;48.152;8.590;2023-06-22T10:18:59;28.80;1.00
10304;DHT22;5197;48.152;8.590;2023-06-22T10:21:26;28.80;1.00
10304;DHT22;5197;48.152;8.590;2023-06-22T10:23:56;28.90;1.00
10304;DHT22;5197;48.152;8.590;2023-06-22T10:26:23;28.90;1.00
10304;DHT22;5197;48.152;8.590;2023-06-22T10:28:50;28.90;1.00
10304;DHT22;5197;48.152;8.590;2023-06-22T10:31:37;29.10;1.00
10304;DHT22;5197;48.152;8.590;2023-06-22T10:34:04;29.00;1.00
10304;DHT22;5197;48.152;8.590;2023-06-22T10:36:31;29.00;1.00
10304;DHT22;5197;48.152;8.590;2023-06-22T10:38:58;29.00;1.00
10304;DHT22;5197;48.152;8.590;2023-06-22T10:41:26;29.00;1.00
10304;DHT22;5197;48.152;8.590;2023-06-22T10:43:56;29.00;1.00
10304;DHT22;5197;48.152;8.590;2023-06-22T10:46:24;29.00;1.00
10304;DHT22;5197;48.152;8.590;2023-06-22T10:48:53;29.20;1.00
10304;DHT22;5197;48.152;8.590;2023-06-22T10:51:22;29.30;1.00
10304;DHT22;5197;48.152;8.590;2023-06-22T10:53:49;29.30;1.00
10304;DHT22;5197;48.152;8.590;2023-06-22T10:56:18;29.40;1.00
10304;DHT22;5197;48.152;8.590;2023-06-22T10:58:49;29.40;1.00
10304;DHT22;5197;48.152;8.590;2023-06-22T11:01:16;29.40;1.00
10304;DHT22;5197;48.152;8.590;2023-06-22T11:04:00;29.30;1.00
10304;DHT22;5197;48.152;8.590;2023-06-22T11:06:27;29.30;1.00
10304;DHT22;5197;48.152;8.590;2023-06-22T11:08:54;29.30;1.00
10304;DHT22;5197;48.152;8.590;2023-06-22T11:11:38;29.30;1.00
10304;DHT22;5197;48.152;8.590;2023-06-22T11:14:05;29.30;1.00
10304;DHT22;5197;48.152;8.590;2023-06-22T11:16:32;29.30;1.00
10304;DHT22;5197;48.152;8.590;2023-06-22T11:19:04;29.40;1.00
10304;DHT22;5197;48.152;8.590;2023-06-22T11:21:31;29.40;1.00
10304;DHT22;5197;48.152;8.590;2023-06-22T11:23:59;29.50;1.00
10304;DHT22;5197;48.152;8.590;2023-06-22T11:26:26;29.60;1.00
10304;DHT22;5197;48.152;8.590;2023-06-22T11:28:57;29.60;1.00
10304;DHT22;5197;48.152;8.590;2023-06-22T11:31:24;29.70;1.00
10304;DHT22;5197;48.152;8.590;2023-06-22T11:33:53;29.70;1.00
10304;DHT22;5197;48.152;8.590;2023-06-22T11:36:21;29.80;1.00
10304;DHT22;5197;48.152;8.590;2023-06-22T11:38:48;29.80;1.00
10304;DHT22;5197;48.152;8.590;2023-06-22T11:41:16;29.80;1.00
10304;DHT22;5197;48.152;8.590;2023-06-22T11:43:43;29.70;1.00
10304;DHT22;5197;48.152;8.590;2023-06-22T11:46:10;29.60;1.00
10304;DHT22;5197;48.152;8.590;2023-06-22T11:48:37;29.50;1.00
10304;DHT22;5197;48.152;8.590;2023-06-22T11:51:04;29.50;1.00
10304;DHT22;5197;48.152;8.590;2023-06-22T11:53:34;29.40;1.00
10304;DHT22;5197;48.152;8.590;2023-06-22T11:56:01;29.40;1.00
10304;DHT22;5197;48.152;8.590;2023-06-22T11:58:28;29.30;1.00
10304;DHT22;5197;48.152;8.590;2023-06-22T12:00:56;29.30;1.00
10304;DHT22;5197;48.152;8.590;2023-06-22T12:03:23;29.10;1.00
10304;DHT22;5197;48.152;8.590;2023-06-22T12:05:51;29.10;1.00
10304;DHT22;5197;48.152;8.590;2023-06-22T12:08:21;29.00;1.00
10304;DHT22;5197;48.152;8.590;2023-06-22T12:10:49;29.10;1.00
10304;DHT22;5197;48.152;8.590;2023-06-22T12:13:17;29.10;1.00
10304;DHT22;5197;48.152;8.590;2023-06-22T12:15:44;29.10;1.00
10304;DHT22;5197;48.152;8.590;2023-06-22T12:18:11;29.10;1.00
10304;DHT22;5197;48.152;8.590;2023-06-22T12:20:38;29.00;1.00
10304;DHT22;5197;48.152;8.590;2023-06-22T12:23:05;29.00;1.00
10304;DHT22;5197;48.152;8.590;2023-06-22T12:25:32;28.90;1.00
10304;DHT22;5197;48.152;8.590;2023-06-22T12:28:00;28.80;1.00
10304;DHT22;5197;48.152;8.590;2023-06-22T12:30:27;28.30;1.00
10304;DHT22;5197;48.152;8.590;2023-06-22T12:32:54;28.90;1.00
10304;DHT22;5197;48.152;8.590;2023-06-22T12:35:22;29.00;1.00
10304;DHT22;5197;48.152;8.590;2023-06-22T12:37:50;29.10;1.00
10304;DHT22;5197;48.152;8.590;2023-06-22T12:40:17;29.10;1.00
10304;DHT22;5197;48.152;8.590;2023-06-22T12:42:45;29.20;1.00
10304;DHT22;5197;48.152;8.590;2023-06-22T12:45:12;29.30;1.00
10304;DHT22;5197;48.152;8.590;2023-06-22T12:47:39;29.30;1.00
10304;DHT22;5197;48.152;8.590;2023-06-22T12:50:06;29.30;1.00
10304;DHT22;5197;48.152;8.590;2023-06-22T12:52:36;29.30;1.00
10304;DHT22;5197;48.152;8.590;2023-06-22T12:55:06;29.40;1.00
10304;DHT22;5197;48.152;8.590;2023-06-22T12:57:33;29.40;1.00
10304;DHT22;5197;48.152;8.590;2023-06-22T13:00:00;29.50;1.00
10304;DHT22;5197;48.152;8.590;2023-06-22T13:02:28;29.50;1.00
10304;DHT22;5197;48.152;8.590;2023-06-22T13:04:55;29.50;1.00
10304;DHT22;5197;48.152;8.590;2023-06-22T13:07:22;29.50;1.00
10304;DHT22;5197;48.152;8.590;2023-06-22T13:09:50;29.50;1.00
10304;DHT22;5197;48.152;8.590;2023-06-22T13:12:20;29.50;1.00
10304;DHT22;5197;48.152;8.590;2023-06-22T13:14:48;29.50;1.00
10304;DHT22;5197;48.152;8.590;2023-06-22T13:17:16;29.40;1.00
10304;DHT22;5197;48.152;8.590;2023-06-22T13:19:43;29.50;1.00
10304;DHT22;5197;48.152;8.590;2023-06-22T13:22:27;29.30;1.00
10304;DHT22;5197;48.152;8.590;2023-06-22T13:24:56;29.30;1.00
10304;DHT22;5197;48.152;8.590;2023-06-22T13:27:23;29.10;1.00
10304;DHT22;5197;48.152;8.590;2023-06-22T13:29:50;29.00;1.00
10304;DHT22;5197;48.152;8.590;2023-06-22T13:32:17;29.00;1.00
10304;DHT22;5197;48.152;8.590;2023-06-22T13:34:45;28.90;1.00
10304;DHT22;5197;48.152;8.590;2023-06-22T13:37:12;28.90;1.00
10304;DHT22;5197;48.152;8.590;2023-06-22T13:39:39;28.90;1.00
10304;DHT22;5197;48.152;8.590;2023-06-22T13:42:06;28.90;1.00
10304;DHT22;5197;48.152;8.590;2023-06-22T13:44:33;28.90;1.00
10304;DHT22;5197;48.152;8.590;2023-06-22T13:47:00;28.90;1.00
10304;DHT22;5197;48.152;8.590;2023-06-22T13:49:27;28.90;1.00
10304;DHT22;5197;48.152;8.590;2023-06-22T13:51:55;28.80;1.00
10304;DHT22;5197;48.152;8.590;2023-06-22T13:54:22;28.80;1.00
10304;DHT22;5197;48.152;8.590;2023-06-22T13:56:52;28.80;1.00
10304;DHT22;5197;48.152;8.590;2023-06-22T13:59:19;28.80;1.00
10304;DHT22;5197;48.152;8.590;2023-06-22T14:01:47;28.80;1.00
10304;DHT22;5197;48.152;8.590;2023-06-22T14:04:14;28.90;1.00
10304;DHT22;5197;48.152;8.590;2023-06-22T14:06:41;29.00;1.00
10304;DHT22;5197;48.152;8.590;2023-06-22T14:09:08;29.10;1.00
10304;DHT22;5197;48.152;8.590;2023-06-22T14:11:36;28.80;1.00
10304;DHT22;5197;48.152;8.590;2023-06-22T14:14:04;28.90;1.00
10304;DHT22;5197;48.152;8.590;2023-06-22T14:16:31;28.80;1.00
10304;DHT22;5197;48.152;8.590;2023-06-22T14:18:58;28.70;1.00
10304;DHT22;5197;48.152;8.590;2023-06-22T14:21:26;28.70;1.00
10304;DHT22;5197;48.152;8.590;2023-06-22T14:23:53;28.70;1.00
10304;DHT22;5197;48.152;8.590;2023-06-22T14:26:20;28.70;1.00
10304;DHT22;5197;48.152;8.590;2023-06-22T14:28:49;28.50;1.00
10304;DHT22;5197;48.152;8.590;2023-06-22T14:31:19;28.50;1.00
10304;DHT22;5197;48.152;8.590;2023-06-22T14:33:48;28.60;1.00
10304;DHT22;5197;48.152;8.590;2023-06-22T14:36:18;28.60;1.00
10304;DHT22;5197;48.152;8.590;2023-06-22T14:38:45;28.90;1.00
10304;DHT22;5197;48.152;8.590;2023-06-22T14:41:15;29.00;1.00
10304;DHT22;5197;48.152;8.590;2023-06-22T14:43:49;29.10;1.00
10304;DHT22;5197;48.152;8.590;2023-06-22T14:46:18;29.00;1.00
10304;DHT22;5197;48.152;8.590;2023-06-22T14:48:46;28.90;1.00
10304;DHT22;5197;48.152;8.590;2023-06-22T14:51:13;28.80;1.00
10304;DHT22;5197;48.152;8.590;2023-06-22T14:53:46;28.70;1.00
10304;DHT22;5197;48.152;8.590;2023-06-22T14:56:13;28.60;1.00
10304;DHT22;5197;48.152;8.590;2023-06-22T14:58:43;28.60;1.00
10304;DHT22;5197;48.152;8.590;2023-06-22T15:01:16;28.50;1.00
10304;DHT22;5197;48.152;8.590;2023-06-22T15:03:43;28.40;1.00
10304;DHT22;5197;48.152;8.590;2023-06-22T15:06:10;28.40;1.00
10304;DHT22;5197;48.152;8.590;2023-06-22T15:08:39;28.40;1.00
10304;DHT22;5197;48.152;8.590;2023-06-22T15:11:06;28.30;1.00
10304;DHT22;5197;48.152;8.590;2023-06-22T15:13:34;28.30;1.00
10304;DHT22;5197;48.152;8.590;2023-06-22T15:16:02;28.20;1.00
10304;DHT22;5197;48.152;8.590;2023-06-22T15:18:32;28.10;1.00
10304;DHT22;5197;48.152;8.590;2023-06-22T15:21:03;28.10;1.00
10304;DHT22;5197;48.152;8.590;2023-06-22T15:23:31;28.10;1.00
10304;DHT22;5197;48.152;8.590;2023-06-22T15:26:01;28.10;1.00
10304;DHT22;5197;48.152;8.590;2023-06-22T15:28:29;28.10;1.00
10304;DHT22;5197;48.152;8.590;2023-06-22T15:30:56;28.10;1.00
10304;DHT22;5197;48.152;8.590;2023-06-22T15:33:24;28.20;1.00
10304;DHT22;5197;48.152;8.590;2023-06-22T15:35:51;28.20;1.00
10304;DHT22;5197;48.152;8.590;2023-06-22T15:38:22;28.30;1.00
10304;DHT22;5197;48.152;8.590;2023-06-22T15:40:50;28.40;1.00
10304;DHT22;5197;48.152;8.590;2023-06-22T15:43:17;28.40;1.00
10304;DHT22;5197;48.152;8.590;2023-06-22T15:45:44;28.40;1.00
10304;DHT22;5197;48.152;8.590;2023-06-22T15:48:11;28.30;1.00
10304;DHT22;5197;48.152;8.590;2023-06-22T15:50:38;28.20;1.00
10304;DHT22;5197;48.152;8.590;2023-06-22T15:53:05;28.10;1.00
10304;DHT22;5197;48.152;8.590;2023-06-22T15:55:32;28.10;1.00
10304;DHT22;5197;48.152;8.590;2023-06-22T15:58:01;27.90;1.00
10304;DHT22;5197;48.152;8.590;2023-06-22T16:00:29;27.80;1.00
10304;DHT22;5197;48.152;8.590;2023-06-22T16:02:56;27.70;1.00
10304;DHT22;5197;48.152;8.590;2023-06-22T16:05:23;27.60;1.00
10304;DHT22;5197;48.152;8.590;2023-06-22T16:07:51;27.60;1.00
10304;DHT22;5197;48.152;8.590;2023-06-22T16:10:18;27.50;1.00